createdAt,value
2022-08-30T00:01:25.200Z,57.70
2022-08-30T00:06:30.474Z,57.70
2022-08-30T00:11:35.163Z,57.60
2022-08-30T00:16:39.630Z,58.00
2022-08-30T00:21:44.552Z,57.90
2022-08-30T00:26:49.072Z,58.00
2022-08-30T00:31:53.905Z,57.60
2022-08-30T00:36:59.810Z,58.00
2022-08-30T00:42:04.888Z,57.90
2022-08-30T00:47:10.476Z,57.70
2022-08-30T00:52:16.302Z,58.30
2022-08-30T00:57:21.281Z,57.70
2022-08-30T01:02:29.000Z,58.00
2022-08-30T01:07:35.171Z,57.90
2022-08-30T01:12:40.331Z,58.10
2022-08-30T01:17:46.295Z,58.20
2022-08-30T01:22:49.726Z,58.50
2022-08-30T01:28:03.788Z,58.20
2022-08-30T01:33:11.715Z,58.20
2022-08-30T01:38:17.684Z,58.10
2022-08-30T01:43:21.410Z,58.20
2022-08-30T01:48:29.232Z,58.50
2022-08-30T01:53:35.103Z,58.20
2022-08-30T01:58:40.568Z,58.20
2022-08-30T02:03:45.722Z,58.20
2022-08-30T02:08:49.939Z,58.30
2022-08-30T02:13:53.689Z,58.50
2022-08-30T02:18:58.013Z,58.50
2022-08-30T02:24:02.277Z,58.20
2022-08-30T02:29:06.858Z,58.20
2022-08-30T02:34:11.831Z,58.80
2022-08-30T02:39:16.879Z,58.20
2022-08-30T02:44:21.607Z,58.30
2022-08-30T02:49:34.198Z,58.30
2022-08-30T02:54:38.671Z,58.40
2022-08-30T02:59:45.639Z,58.30
2022-08-30T03:04:50.831Z,58.80
2022-08-30T03:09:55.235Z,58.60
2022-08-30T03:15:00.453Z,58.30
2022-08-30T03:20:05.670Z,58.10
2022-08-30T03:25:10.222Z,58.40
2022-08-30T03:30:15.410Z,58.40
2022-08-30T03:35:20.629Z,58.40
2022-08-30T03:40:25.021Z,58.50
2022-08-30T03:45:31.161Z,58.80
2022-08-30T03:50:38.970Z,58.90
2022-08-30T03:55:43.305Z,58.60
2022-08-30T04:00:47.913Z,58.60
2022-08-30T04:05:57.011Z,58.70
2022-08-30T04:11:03.069Z,58.80
2022-08-30T04:16:10.001Z,58.80
2022-08-30T04:21:14.357Z,58.90
2022-08-30T04:26:18.244Z,58.80
2022-08-30T04:31:23.113Z,59.00
2022-08-30T04:36:27.838Z,58.80
2022-08-30T04:41:31.361Z,58.90
2022-08-30T04:46:44.767Z,58.90
2022-08-30T04:51:48.752Z,58.90
2022-08-30T04:56:52.363Z,59.00
2022-08-30T05:01:56.766Z,59.10
2022-08-30T05:07:03.573Z,59.10
2022-08-30T05:12:14.559Z,59.20
2022-08-30T05:17:19.064Z,59.10
2022-08-30T05:22:23.735Z,59.10
2022-08-30T05:27:28.286Z,59.20
2022-08-30T05:32:32.703Z,59.30
2022-08-30T05:37:42.410Z,59.60
2022-08-30T05:42:50.977Z,60.10
2022-08-30T05:47:54.586Z,59.50
2022-08-30T05:53:02.405Z,59.60
2022-08-30T05:58:06.235Z,59.60
2022-08-30T06:03:12.449Z,59.70
2022-08-30T06:08:19.295Z,59.90
2022-08-30T06:13:23.650Z,60.00
2022-08-30T06:18:28.794Z,60.00
2022-08-30T06:23:33.048Z,59.90
2022-08-30T06:28:37.182Z,60.20
2022-08-30T06:33:42.419Z,60.60
2022-08-30T06:38:47.652Z,60.20
2022-08-30T06:43:51.839Z,61.00
2022-08-30T06:48:57.200Z,60.90
2022-08-30T06:54:01.744Z,60.90
2022-08-30T06:59:06.289Z,60.90
2022-08-30T07:04:15.993Z,61.10
2022-08-30T07:09:22.978Z,61.30
2022-08-30T07:14:33.000Z,60.90
2022-08-30T07:19:42.679Z,61.30
2022-08-30T07:24:52.578Z,61.50
2022-08-30T07:29:59.204Z,61.50
2022-08-30T07:35:06.078Z,61.90
2022-08-30T07:40:13.413Z,61.70
2022-08-30T07:45:38.080Z,61.80
2022-08-30T07:50:52.556Z,62.10
2022-08-30T07:56:04.885Z,62.10
2022-08-30T08:01:13.744Z,62.50
2022-08-30T08:06:23.567Z,62.10
2022-08-30T08:11:41.673Z,62.50
2022-08-30T08:16:47.025Z,62.00
2022-08-30T08:22:09.240Z,61.90
2022-08-30T08:27:15.307Z,61.90
2022-08-30T08:32:19.228Z,61.90
2022-08-30T08:37:26.708Z,62.00
2022-08-30T08:43:04.432Z,62.00
2022-08-30T08:48:32.078Z,62.30
2022-08-30T08:53:56.765Z,62.30
2022-08-30T08:59:01.757Z,62.10
2022-08-30T09:04:28.941Z,62.10
2022-08-30T09:09:38.872Z,62.00
2022-08-30T09:14:49.986Z,62.00
2022-08-30T09:20:03.119Z,61.60
2022-08-30T09:25:08.908Z,61.80
2022-08-30T09:30:28.689Z,61.70
2022-08-30T09:35:48.987Z,61.80
2022-08-30T09:40:59.262Z,61.80
2022-08-30T09:46:03.040Z,61.80
2022-08-30T09:51:16.025Z,61.80
2022-08-30T09:56:57.715Z,61.70
2022-08-30T10:02:39.713Z,61.70
2022-08-30T10:07:57.461Z,61.70
2022-08-30T10:13:22.981Z,61.90
2022-08-30T10:18:44.001Z,61.70
2022-08-30T10:24:13.557Z,61.60
2022-08-30T10:29:32.385Z,61.60
2022-08-30T10:34:41.915Z,61.60
2022-08-30T10:39:52.135Z,61.50
2022-08-30T10:45:11.008Z,61.30
2022-08-30T10:50:28.534Z,61.50
2022-08-30T10:55:37.934Z,61.20
2022-08-30T11:01:12.692Z,61.20
2022-08-30T11:06:59.772Z,61.20
2022-08-30T11:12:51.759Z,61.00
2022-08-30T11:17:59.689Z,60.70
2022-08-30T11:23:39.998Z,60.70
2022-08-30T11:28:47.658Z,60.30
2022-08-30T11:34:01.612Z,60.00
2022-08-30T11:39:14.050Z,59.90
2022-08-30T11:44:24.244Z,60.10
2022-08-30T11:49:56.901Z,60.10
2022-08-30T11:55:13.720Z,59.80
2022-08-30T12:00:31.534Z,59.90
2022-08-30T12:06:02.388Z,59.40
2022-08-30T12:11:15.856Z,59.20
2022-08-30T12:16:27.416Z,59.20
2022-08-30T12:21:44.709Z,59.20
2022-08-30T12:26:55.329Z,59.60
2022-08-30T12:32:08.953Z,59.10
2022-08-30T12:37:34.050Z,59.50
2022-08-30T12:43:19.950Z,59.40
2022-08-30T12:48:41.028Z,59.00
2022-08-30T12:53:47.437Z,58.90
2022-08-30T12:58:59.509Z,59.00
2022-08-30T13:04:48.667Z,58.80
2022-08-30T13:10:19.957Z,58.30
2022-08-30T13:15:54.459Z,58.10
2022-08-30T13:27:02.430Z,58.10
2022-08-30T13:32:06.163Z,57.30
2022-08-30T13:42:40.845Z,57.60
2022-08-30T13:47:47.039Z,58.00
2022-08-30T13:52:50.626Z,57.60
2022-08-30T13:57:55.987Z,57.60
2022-08-30T14:03:01.384Z,57.20
2022-08-30T14:08:44.283Z,57.20
2022-08-30T14:13:34.437Z,56.80
2022-08-30T14:18:38.008Z,57.20
2022-08-30T14:23:44.105Z,56.60
2022-08-30T14:28:52.609Z,56.50
2022-08-30T14:33:59.216Z,56.30
2022-08-30T14:39:08.613Z,56.10
2022-08-30T14:44:17.352Z,55.70
2022-08-30T14:49:21.240Z,56.00
2022-08-30T14:54:28.033Z,56.60
2022-08-30T14:59:31.864Z,56.30
2022-08-30T15:04:35.975Z,56.20
2022-08-30T15:09:40.451Z,56.50
2022-08-30T15:14:45.391Z,56.30
2022-08-30T15:19:51.993Z,56.00
2022-08-30T15:24:56.118Z,56.30
2022-08-30T15:29:59.741Z,56.20
2022-08-30T15:35:05.614Z,56.20
2022-08-30T15:40:12.065Z,56.10
2022-08-30T15:45:17.918Z,56.30
2022-08-30T15:50:21.703Z,56.20
2022-08-30T15:55:27.678Z,56.00
2022-08-30T16:00:32.253Z,56.20
2022-08-30T16:05:35.846Z,56.20
2022-08-30T16:10:43.096Z,56.20
2022-08-30T16:15:47.162Z,56.60
2022-08-30T16:21:04.144Z,56.70
2022-08-30T16:26:09.072Z,56.20
2022-08-30T16:31:16.018Z,56.10
2022-08-30T16:36:24.704Z,56.60
2022-08-30T16:41:29.554Z,56.70
2022-08-30T16:46:37.651Z,56.20
2022-08-30T16:51:41.509Z,56.10
2022-08-30T16:56:51.171Z,56.20
2022-08-30T17:01:55.636Z,56.10
2022-08-30T17:06:59.334Z,56.80
2022-08-30T17:12:16.059Z,56.40
2022-08-30T17:17:22.172Z,56.50
2022-08-30T17:22:26.073Z,57.00
2022-08-30T17:27:32.467Z,56.70
2022-08-30T17:32:39.819Z,57.00
2022-08-30T17:37:49.211Z,57.00
2022-08-30T17:42:55.319Z,57.50
2022-08-30T17:48:02.605Z,57.20
2022-08-30T17:53:12.350Z,57.30
2022-08-30T17:58:17.426Z,57.40
2022-08-30T18:03:40.816Z,57.50
2022-08-30T18:08:57.041Z,57.50
2022-08-30T18:14:15.165Z,57.60
2022-08-30T18:19:36.104Z,57.70
2022-08-30T18:24:53.020Z,57.80
2022-08-30T18:30:18.079Z,57.90
2022-08-30T18:35:27.883Z,58.00
2022-08-30T18:40:46.482Z,58.00
2022-08-30T18:45:57.850Z,58.10
2022-08-30T18:51:24.792Z,58.50
2022-08-30T19:02:55.449Z,58.30
2022-08-30T19:08:03.063Z,58.70
2022-08-30T19:13:07.401Z,58.80
2022-08-30T19:18:16.693Z,58.50
2022-08-30T19:23:25.913Z,58.60
2022-08-30T19:28:31.317Z,58.60
2022-08-30T19:33:35.708Z,58.70
2022-08-30T19:38:45.368Z,59.10
2022-08-30T19:43:49.519Z,58.80
2022-08-30T19:49:04.835Z,59.50
2022-08-30T19:54:12.238Z,58.80
2022-08-30T19:59:17.195Z,58.80
2022-08-30T20:04:29.121Z,59.10
2022-08-30T20:09:58.136Z,58.80
2022-08-30T20:15:26.619Z,58.90
2022-08-30T20:20:42.290Z,58.80
2022-08-30T20:26:20.370Z,58.90
2022-08-30T20:31:38.759Z,58.90
2022-08-30T20:36:43.936Z,58.90
2022-08-30T20:41:52.489Z,58.80
2022-08-30T20:46:57.381Z,58.40
2022-08-30T20:52:11.755Z,58.80
2022-08-30T20:57:24.654Z,58.80
2022-08-30T21:02:32.514Z,58.80
2022-08-30T21:07:42.852Z,58.90
2022-08-30T21:12:46.498Z,59.00
2022-08-30T21:17:51.451Z,59.00
2022-08-30T21:22:56.302Z,58.90
2022-08-30T21:28:00.711Z,58.90
2022-08-30T21:33:05.983Z,58.80
2022-08-30T21:38:10.234Z,59.00
2022-08-30T21:43:14.990Z,59.10
2022-08-30T21:48:18.879Z,59.30
2022-08-30T21:53:22.648Z,59.20
2022-08-30T21:58:26.238Z,59.20
2022-08-30T22:03:29.790Z,59.10
2022-08-30T22:08:34.235Z,59.30
2022-08-30T22:13:39.446Z,59.20
2022-08-30T22:18:44.242Z,59.30
2022-08-30T22:23:48.070Z,59.30
2022-08-30T22:28:53.812Z,59.40
2022-08-30T22:33:57.668Z,59.40
2022-08-30T22:39:03.269Z,59.40
2022-08-30T22:44:06.962Z,59.40
2022-08-30T22:49:17.852Z,59.40
2022-08-30T22:54:21.780Z,60.10
2022-08-30T22:59:31.430Z,59.50
2022-08-30T23:04:43.151Z,59.60
2022-08-30T23:09:46.877Z,59.60
2022-08-30T23:14:51.316Z,59.70
2022-08-30T23:19:59.750Z,59.80
2022-08-30T23:25:22.210Z,59.80
2022-08-30T23:30:49.770Z,59.90
2022-08-30T23:36:11.919Z,59.80
2022-08-30T23:41:34.476Z,59.90
2022-08-30T23:46:56.924Z,59.90
2022-08-30T23:52:19.687Z,60.00
2022-08-30T23:57:42.240Z,60.30
